sensor_id;sensor_type;location;lat;lon;timestamp;P1;durP1;ratioP1;P2;durP2;ratioP2
40849;SDS011;26571;41.610;25.380;2023-12-28T00:01:50;7.18;;;5.50;;
40849;SDS011;26571;41.610;25.380;2023-12-28T00:04:16;7.55;;;5.93;;
40849;SDS011;26571;41.610;25.380;2023-12-28T00:06:41;8.57;;;5.57;;
40849;SDS011;26571;41.610;25.380;2023-12-28T00:09:07;9.52;;;5.97;;
40849;SDS011;26571;41.610;25.380;2023-12-28T00:11:35;6.15;;;5.55;;
40849;SDS011;26571;41.610;25.380;2023-12-28T00:14:00;9.70;;;5.15;;
40849;SDS011;26571;41.610;25.380;2023-12-28T00:16:27;5.28;;;4.88;;
40849;SDS011;26571;41.610;25.380;2023-12-28T00:18:52;6.13;;;5.63;;
40849;SDS011;26571;41.610;25.380;2023-12-28T00:21:18;7.07;;;5.40;;
40849;SDS011;26571;41.610;25.380;2023-12-28T00:23:43;6.13;;;5.57;;
40849;SDS011;26571;41.610;25.380;2023-12-28T00:26:09;6.60;;;5.13;;
40849;SDS011;26571;41.610;25.380;2023-12-28T00:28:34;7.28;;;5.10;;
40849;SDS011;26571;41.610;25.380;2023-12-28T00:31:00;6.32;;;5.78;;
40849;SDS011;26571;41.610;25.380;2023-12-28T00:33:25;5.25;;;4.85;;
40849;SDS011;26571;41.610;25.380;2023-12-28T00:35:51;5.82;;;4.68;;
40849;SDS011;26571;41.610;25.380;2023-12-28T00:38:16;6.85;;;6.15;;
40849;SDS011;26571;41.610;25.380;2023-12-28T00:40:42;6.28;;;5.65;;
40849;SDS011;26571;41.610;25.380;2023-12-28T00:43:07;6.88;;;6.18;;
40849;SDS011;26571;41.610;25.380;2023-12-28T00:45:33;6.55;;;6.03;;
40849;SDS011;26571;41.610;25.380;2023-12-28T00:47:58;5.90;;;5.40;;
40849;SDS011;26571;41.610;25.380;2023-12-28T00:50:23;6.20;;;5.47;;
40849;SDS011;26571;41.610;25.380;2023-12-28T00:52:50;5.63;;;4.90;;
40849;SDS011;26571;41.610;25.380;2023-12-28T00:55:16;6.03;;;4.95;;
40849;SDS011;26571;41.610;25.380;2023-12-28T00:57:42;10.25;;;5.93;;
40849;SDS011;26571;41.610;25.380;2023-12-28T01:00:07;6.25;;;5.45;;
40849;SDS011;26571;41.610;25.380;2023-12-28T01:02:33;5.30;;;4.95;;
40849;SDS011;26571;41.610;25.380;2023-12-28T01:04:59;6.80;;;4.35;;
40849;SDS011;26571;41.610;25.380;2023-12-28T01:07:24;5.25;;;4.47;;
40849;SDS011;26571;41.610;25.380;2023-12-28T01:09:49;5.40;;;4.90;;
40849;SDS011;26571;41.610;25.380;2023-12-28T01:12:15;4.60;;;4.28;;
40849;SDS011;26571;41.610;25.380;2023-12-28T01:14:41;6.03;;;5.43;;
40849;SDS011;26571;41.610;25.380;2023-12-28T01:17:06;6.57;;;6.05;;
40849;SDS011;26571;41.610;25.380;2023-12-28T01:19:32;6.28;;;5.13;;
40849;SDS011;26571;41.610;25.380;2023-12-28T01:21:57;9.35;;;4.97;;
40849;SDS011;26571;41.610;25.380;2023-12-28T01:24:23;6.13;;;5.38;;
40849;SDS011;26571;41.610;25.380;2023-12-28T01:26:49;6.40;;;4.63;;
40849;SDS011;26571;41.610;25.380;2023-12-28T01:29:14;8.70;;;5.38;;
40849;SDS011;26571;41.610;25.380;2023-12-28T01:31:40;4.38;;;3.92;;
40849;SDS011;26571;41.610;25.380;2023-12-28T01:34:05;4.82;;;4.43;;
40849;SDS011;26571;41.610;25.380;2023-12-28T01:36:31;4.65;;;4.05;;
40849;SDS011;26571;41.610;25.380;2023-12-28T01:38:56;5.60;;;4.75;;
40849;SDS011;26571;41.610;25.380;2023-12-28T01:41:22;4.82;;;4.43;;
40849;SDS011;26571;41.610;25.380;2023-12-28T01:43:47;6.70;;;4.82;;
40849;SDS011;26571;41.610;25.380;2023-12-28T01:46:15;6.55;;;5.35;;
40849;SDS011;26571;41.610;25.380;2023-12-28T01:48:43;5.88;;;5.28;;
40849;SDS011;26571;41.610;25.380;2023-12-28T01:51:10;9.05;;;6.43;;
40849;SDS011;26571;41.610;25.380;2023-12-28T01:53:37;7.97;;;6.63;;
40849;SDS011;26571;41.610;25.380;2023-12-28T01:56:03;9.02;;;7.70;;
40849;SDS011;26571;41.610;25.380;2023-12-28T01:58:29;6.65;;;6.05;;
40849;SDS011;26571;41.610;25.380;2023-12-28T02:00:58;8.80;;;5.88;;
40849;SDS011;26571;41.610;25.380;2023-12-28T02:03:24;9.50;;;7.22;;
40849;SDS011;26571;41.610;25.380;2023-12-28T02:05:50;13.00;;;6.30;;
40849;SDS011;26571;41.610;25.380;2023-12-28T02:08:16;6.90;;;4.63;;
40849;SDS011;26571;41.610;25.380;2023-12-28T02:10:42;5.93;;;4.20;;
40849;SDS011;26571;41.610;25.380;2023-12-28T02:13:08;5.60;;;5.10;;
40849;SDS011;26571;41.610;25.380;2023-12-28T02:15:34;5.35;;;4.95;;
40849;SDS011;26571;41.610;25.380;2023-12-28T02:18:05;4.50;;;4.20;;
40849;SDS011;26571;41.610;25.380;2023-12-28T02:20:36;3.10;;;2.88;;
40849;SDS011;26571;41.610;25.380;2023-12-28T02:23:04;3.72;;;3.42;;
40849;SDS011;26571;41.610;25.380;2023-12-28T02:25:31;3.55;;;3.35;;
40849;SDS011;26571;41.610;25.380;2023-12-28T02:27:56;4.57;;;4.28;;
40849;SDS011;26571;41.610;25.380;2023-12-28T02:30:23;3.70;;;3.40;;
40849;SDS011;26571;41.610;25.380;2023-12-28T02:38:09;6.32;;;5.72;;
40849;SDS011;26571;41.610;25.380;2023-12-28T02:40:37;4.85;;;4.45;;
40849;SDS011;26571;41.610;25.380;2023-12-28T02:45:33;6.57;;;3.70;;
40849;SDS011;26571;41.610;25.380;2023-12-28T02:47:59;4.03;;;3.63;;
40849;SDS011;26571;41.610;25.380;2023-12-28T02:50:24;3.95;;;3.65;;
40849;SDS011;26571;41.610;25.380;2023-12-28T02:52:50;3.88;;;3.65;;
40849;SDS011;26571;41.610;25.380;2023-12-28T02:55:15;4.95;;;4.45;;
40849;SDS011;26571;41.610;25.380;2023-12-28T02:57:42;3.90;;;3.58;;
40849;SDS011;26571;41.610;25.380;2023-12-28T03:00:09;4.30;;;3.75;;
40849;SDS011;26571;41.610;25.380;2023-12-28T03:02:35;7.97;;;4.72;;
40849;SDS011;26571;41.610;25.380;2023-12-28T03:05:02;5.57;;;3.47;;
40849;SDS011;26571;41.610;25.380;2023-12-28T03:07:29;3.97;;;3.72;;
40849;SDS011;26571;41.610;25.380;2023-12-28T03:09:55;4.15;;;3.83;;
40849;SDS011;26571;41.610;25.380;2023-12-28T03:12:20;5.00;;;4.50;;
40849;SDS011;26571;41.610;25.380;2023-12-28T03:14:47;4.30;;;3.97;;
40849;SDS011;26571;41.610;25.380;2023-12-28T03:17:12;3.97;;;3.55;;
40849;SDS011;26571;41.610;25.380;2023-12-28T03:19:38;4.45;;;3.95;;
40849;SDS011;26571;41.610;25.380;2023-12-28T03:22:04;5.53;;;5.15;;
40849;SDS011;26571;41.610;25.380;2023-12-28T03:24:30;5.55;;;5.07;;
40849;SDS011;26571;41.610;25.380;2023-12-28T03:26:55;4.85;;;4.53;;
40849;SDS011;26571;41.610;25.380;2023-12-28T03:29:21;4.05;;;3.75;;
40849;SDS011;26571;41.610;25.380;2023-12-28T03:31:46;4.88;;;4.18;;
40849;SDS011;26571;41.610;25.380;2023-12-28T03:34:12;4.10;;;3.80;;
40849;SDS011;26571;41.610;25.380;2023-12-28T03:36:37;4.22;;;3.95;;
40849;SDS011;26571;41.610;25.380;2023-12-28T03:39:03;4.15;;;3.55;;
40849;SDS011;26571;41.610;25.380;2023-12-28T03:41:28;4.70;;;4.30;;
40849;SDS011;26571;41.610;25.380;2023-12-28T03:43:54;4.72;;;4.28;;
40849;SDS011;26571;41.610;25.380;2023-12-28T03:46:20;4.05;;;3.85;;
40849;SDS011;26571;41.610;25.380;2023-12-28T03:48:45;3.67;;;3.47;;
40849;SDS011;26571;41.610;25.380;2023-12-28T03:51:14;4.82;;;4.47;;
40849;SDS011;26571;41.610;25.380;2023-12-28T03:53:40;5.30;;;4.93;;
40849;SDS011;26571;41.610;25.380;2023-12-28T03:56:06;3.83;;;3.58;;
40849;SDS011;26571;41.610;25.380;2023-12-28T03:58:32;4.35;;;4.10;;
40849;SDS011;26571;41.610;25.380;2023-12-28T04:00:58;3.85;;;3.65;;
40849;SDS011;26571;41.610;25.380;2023-12-28T04:03:23;3.45;;;3.22;;
40849;SDS011;26571;41.610;25.380;2023-12-28T04:05:50;3.95;;;3.65;;
40849;SDS011;26571;41.610;25.380;2023-12-28T04:08:16;2.78;;;2.67;;
40849;SDS011;26571;41.610;25.380;2023-12-28T04:10:41;3.10;;;2.95;;
40849;SDS011;26571;41.610;25.380;2023-12-28T04:13:07;5.63;;;3.35;;
40849;SDS011;26571;41.610;25.380;2023-12-28T04:15:32;4.07;;;3.70;;
40849;SDS011;26571;41.610;25.380;2023-12-28T04:17:57;5.00;;;4.57;;
40849;SDS011;26571;41.610;25.380;2023-12-28T04:20:23;4.65;;;4.35;;
40849;SDS011;26571;41.610;25.380;2023-12-28T04:22:49;3.95;;;3.58;;
40849;SDS011;26571;41.610;25.380;2023-12-28T04:25:14;3.00;;;2.80;;
40849;SDS011;26571;41.610;25.380;2023-12-28T04:27:41;4.57;;;4.20;;
40849;SDS011;26571;41.610;25.380;2023-12-28T04:30:07;4.57;;;4.18;;
40849;SDS011;26571;41.610;25.380;2023-12-28T04:32:37;4.32;;;4.07;;
40849;SDS011;26571;41.610;25.380;2023-12-28T04:35:03;4.75;;;4.35;;
40849;SDS011;26571;41.610;25.380;2023-12-28T04:37:28;5.07;;;4.63;;
40849;SDS011;26571;41.610;25.380;2023-12-28T04:39:55;3.80;;;3.60;;
40849;SDS011;26571;41.610;25.380;2023-12-28T04:42:21;4.40;;;4.17;;
40849;SDS011;26571;41.610;25.380;2023-12-28T04:44:47;3.17;;;3.08;;
40849;SDS011;26571;41.610;25.380;2023-12-28T04:47:12;3.45;;;3.15;;
40849;SDS011;26571;41.610;25.380;2023-12-28T04:49:38;3.58;;;3.35;;
40849;SDS011;26571;41.610;25.380;2023-12-28T04:52:03;4.88;;;4.57;;
40849;SDS011;26571;41.610;25.380;2023-12-28T04:54:29;4.15;;;3.90;;
40849;SDS011;26571;41.610;25.380;2023-12-28T04:56:55;4.25;;;4.00;;
40849;SDS011;26571;41.610;25.380;2023-12-28T04:59:20;5.18;;;4.78;;
40849;SDS011;26571;41.610;25.380;2023-12-28T05:01:46;5.60;;;4.53;;
40849;SDS011;26571;41.610;25.380;2023-12-28T05:04:11;6.25;;;5.65;;
40849;SDS011;26571;41.610;25.380;2023-12-28T05:06:37;5.75;;;4.72;;
40849;SDS011;26571;41.610;25.380;2023-12-28T05:09:03;4.65;;;4.25;;
40849;SDS011;26571;41.610;25.380;2023-12-28T05:11:29;7.65;;;4.75;;
40849;SDS011;26571;41.610;25.380;2023-12-28T05:13:55;5.53;;;5.03;;
40849;SDS011;26571;41.610;25.380;2023-12-28T05:16:20;4.47;;;4.10;;
40849;SDS011;26571;41.610;25.380;2023-12-28T05:18:46;6.68;;;3.50;;
40849;SDS011;26571;41.610;25.380;2023-12-28T05:21:12;3.80;;;3.55;;
40849;SDS011;26571;41.610;25.380;2023-12-28T05:23:38;4.37;;;3.97;;
40849;SDS011;26571;41.610;25.380;2023-12-28T05:26:04;5.15;;;4.72;;
40849;SDS011;26571;41.610;25.380;2023-12-28T05:28:31;5.43;;;4.93;;
40849;SDS011;26571;41.610;25.380;2023-12-28T05:30:57;4.95;;;4.68;;
40849;SDS011;26571;41.610;25.380;2023-12-28T05:33:24;4.50;;;4.20;;
40849;SDS011;26571;41.610;25.380;2023-12-28T05:35:50;4.90;;;4.53;;
40849;SDS011;26571;41.610;25.380;2023-12-28T05:38:15;5.80;;;5.38;;
40849;SDS011;26571;41.610;25.380;2023-12-28T05:40:41;5.85;;;4.80;;
40849;SDS011;26571;41.610;25.380;2023-12-28T05:43:08;5.30;;;4.90;;
40849;SDS011;26571;41.610;25.380;2023-12-28T05:45:33;4.93;;;4.63;;
40849;SDS011;26571;41.610;25.380;2023-12-28T05:47:58;6.82;;;5.47;;
40849;SDS011;26571;41.610;25.380;2023-12-28T05:50:24;9.63;;;6.43;;
40849;SDS011;26571;41.610;25.380;2023-12-28T05:52:49;10.75;;;6.35;;
40849;SDS011;26571;41.610;25.380;2023-12-28T05:55:15;10.05;;;7.00;;
40849;SDS011;26571;41.610;25.380;2023-12-28T05:57:40;8.75;;;7.70;;
40849;SDS011;26571;41.610;25.380;2023-12-28T06:00:06;10.18;;;8.82;;
40849;SDS011;26571;41.610;25.380;2023-12-28T06:02:32;9.82;;;8.27;;
40849;SDS011;26571;41.610;25.380;2023-12-28T06:04:57;8.63;;;7.20;;
40849;SDS011;26571;41.610;25.380;2023-12-28T06:07:23;10.20;;;8.43;;
40849;SDS011;26571;41.610;25.380;2023-12-28T06:09:48;7.82;;;6.85;;
40849;SDS011;26571;41.610;25.380;2023-12-28T06:12:14;9.55;;;7.03;;
40849;SDS011;26571;41.610;25.380;2023-12-28T06:14:39;6.97;;;6.30;;
40849;SDS011;26571;41.610;25.380;2023-12-28T06:17:05;11.50;;;6.28;;
40849;SDS011;26571;41.610;25.380;2023-12-28T06:19:30;6.22;;;5.57;;
40849;SDS011;26571;41.610;25.380;2023-12-28T06:21:56;9.23;;;6.68;;
40849;SDS011;26571;41.610;25.380;2023-12-28T06:24:23;21.58;;;16.85;;
40849;SDS011;26571;41.610;25.380;2023-12-28T06:26:49;16.90;;;13.60;;
40849;SDS011;26571;41.610;25.380;2023-12-28T06:29:14;15.60;;;13.90;;
40849;SDS011;26571;41.610;25.380;2023-12-28T06:31:40;16.60;;;11.07;;
40849;SDS011;26571;41.610;25.380;2023-12-28T06:34:05;9.45;;;8.30;;
40849;SDS011;26571;41.610;25.380;2023-12-28T06:36:32;6.47;;;5.68;;
40849;SDS011;26571;41.610;25.380;2023-12-28T06:38:58;4.65;;;4.25;;
40849;SDS011;26571;41.610;25.380;2023-12-28T06:41:24;6.43;;;5.93;;
40849;SDS011;26571;41.610;25.380;2023-12-28T06:43:50;9.75;;;8.38;;
40849;SDS011;26571;41.610;25.380;2023-12-28T06:46:16;21.63;;;19.50;;
40849;SDS011;26571;41.610;25.380;2023-12-28T06:48:42;14.40;;;13.10;;
40849;SDS011;26571;41.610;25.380;2023-12-28T06:51:08;14.20;;;12.80;;
40849;SDS011;26571;41.610;25.380;2023-12-28T06:53:35;10.53;;;9.50;;
40849;SDS011;26571;41.610;25.380;2023-12-28T06:56:00;11.50;;;10.40;;
40849;SDS011;26571;41.610;25.380;2023-12-28T06:58:26;26.50;;;19.98;;
40849;SDS011;26571;41.610;25.380;2023-12-28T07:00:51;21.40;;;17.40;;
40849;SDS011;26571;41.610;25.380;2023-12-28T07:03:17;29.92;;;21.55;;
40849;SDS011;26571;41.610;25.380;2023-12-28T07:05:42;22.55;;;19.77;;
40849;SDS011;26571;41.610;25.380;2023-12-28T07:08:08;20.25;;;15.05;;
40849;SDS011;26571;41.610;25.380;2023-12-28T07:10:34;17.42;;;15.70;;
40849;SDS011;26571;41.610;25.380;2023-12-28T07:12:59;17.27;;;15.57;;
40849;SDS011;26571;41.610;25.380;2023-12-28T07:15:25;17.83;;;16.13;;
40849;SDS011;26571;41.610;25.380;2023-12-28T07:17:50;14.60;;;13.20;;
40849;SDS011;26571;41.610;25.380;2023-12-28T07:20:16;11.57;;;10.55;;
40849;SDS011;26571;41.610;25.380;2023-12-28T07:22:41;7.55;;;6.95;;
40849;SDS011;26571;41.610;25.380;2023-12-28T07:25:07;6.10;;;5.68;;
40849;SDS011;26571;41.610;25.380;2023-12-28T07:27:36;8.15;;;7.15;;
40849;SDS011;26571;41.610;25.380;2023-12-28T07:30:02;8.68;;;7.95;;
40849;SDS011;26571;41.610;25.380;2023-12-28T07:32:31;11.23;;;9.43;;
40849;SDS011;26571;41.610;25.380;2023-12-28T07:34:56;16.08;;;11.18;;
40849;SDS011;26571;41.610;25.380;2023-12-28T07:37:22;16.75;;;12.13;;
40849;SDS011;26571;41.610;25.380;2023-12-28T07:39:47;16.85;;;11.40;;
40849;SDS011;26571;41.610;25.380;2023-12-28T07:42:13;22.95;;;11.35;;
40849;SDS011;26571;41.610;25.380;2023-12-28T07:44:38;16.23;;;11.18;;
40849;SDS011;26571;41.610;25.380;2023-12-28T07:47:04;31.85;;;12.50;;
40849;SDS011;26571;41.610;25.380;2023-12-28T07:49:30;20.08;;;13.02;;
40849;SDS011;26571;41.610;25.380;2023-12-28T07:51:56;15.57;;;10.85;;
40849;SDS011;26571;41.610;25.380;2023-12-28T07:54:21;16.67;;;10.98;;
40849;SDS011;26571;41.610;25.380;2023-12-28T07:56:47;19.38;;;11.93;;
40849;SDS011;26571;41.610;25.380;2023-12-28T07:59:12;24.58;;;13.13;;
40849;SDS011;26571;41.610;25.380;2023-12-28T08:01:38;26.13;;;13.52;;
40849;SDS011;26571;41.610;25.380;2023-12-28T08:04:04;28.90;;;14.32;;
40849;SDS011;26571;41.610;25.380;2023-12-28T08:06:29;29.08;;;17.65;;
40849;SDS011;26571;41.610;25.380;2023-12-28T08:08:58;30.35;;;17.27;;
40849;SDS011;26571;41.610;25.380;2023-12-28T08:11:26;31.33;;;16.55;;
40849;SDS011;26571;41.610;25.380;2023-12-28T08:13:52;27.57;;;15.50;;
40849;SDS011;26571;41.610;25.380;2023-12-28T08:16:17;31.48;;;16.77;;
40849;SDS011;26571;41.610;25.380;2023-12-28T08:18:43;31.38;;;15.77;;
40849;SDS011;26571;41.610;25.380;2023-12-28T08:21:08;26.35;;;14.93;;
40849;SDS011;26571;41.610;25.380;2023-12-28T08:23:34;23.35;;;14.23;;
40849;SDS011;26571;41.610;25.380;2023-12-28T08:25:59;21.10;;;16.10;;
40849;SDS011;26571;41.610;25.380;2023-12-28T08:28:25;31.55;;;15.32;;
40849;SDS011;26571;41.610;25.380;2023-12-28T08:30:50;20.80;;;12.73;;
40849;SDS011;26571;41.610;25.380;2023-12-28T08:33:16;21.15;;;14.82;;
40849;SDS011;26571;41.610;25.380;2023-12-28T08:35:41;17.70;;;11.23;;
40849;SDS011;26571;41.610;25.380;2023-12-28T08:38:07;13.10;;;10.90;;
40849;SDS011;26571;41.610;25.380;2023-12-28T08:40:33;18.73;;;12.77;;
40849;SDS011;26571;41.610;25.380;2023-12-28T08:42:58;20.38;;;13.25;;
40849;SDS011;26571;41.610;25.380;2023-12-28T08:45:24;19.08;;;14.35;;
40849;SDS011;26571;41.610;25.380;2023-12-28T08:47:49;20.10;;;15.77;;
40849;SDS011;26571;41.610;25.380;2023-12-28T08:50:15;20.15;;;17.23;;
40849;SDS011;26571;41.610;25.380;2023-12-28T08:52:40;12.40;;;11.00;;
40849;SDS011;26571;41.610;25.380;2023-12-28T08:55:06;15.48;;;10.90;;
40849;SDS011;26571;41.610;25.380;2023-12-28T08:57:31;12.93;;;10.57;;
40849;SDS011;26571;41.610;25.380;2023-12-28T08:59:57;19.38;;;11.65;;
40849;SDS011;26571;41.610;25.380;2023-12-28T09:02:27;18.50;;;14.25;;
40849;SDS011;26571;41.610;25.380;2023-12-28T09:04:53;13.38;;;10.25;;
40849;SDS011;26571;41.610;25.380;2023-12-28T09:07:18;12.40;;;9.35;;
40849;SDS011;26571;41.610;25.380;2023-12-28T09:09:44;20.38;;;16.40;;
40849;SDS011;26571;41.610;25.380;2023-12-28T09:12:10;12.35;;;10.80;;
40849;SDS011;26571;41.610;25.380;2023-12-28T09:14:36;11.77;;;10.13;;
40849;SDS011;26571;41.610;25.380;2023-12-28T09:17:02;13.82;;;10.55;;
40849;SDS011;26571;41.610;25.380;2023-12-28T09:19:29;17.80;;;14.07;;
40849;SDS011;26571;41.610;25.380;2023-12-28T09:21:55;18.63;;;12.82;;
40849;SDS011;26571;41.610;25.380;2023-12-28T09:24:20;13.57;;;9.23;;
40849;SDS011;26571;41.610;25.380;2023-12-28T09:26:46;9.95;;;7.70;;
40849;SDS011;26571;41.610;25.380;2023-12-28T09:29:11;8.73;;;7.55;;
40849;SDS011;26571;41.610;25.380;2023-12-28T09:31:37;6.47;;;5.28;;
40849;SDS011;26571;41.610;25.380;2023-12-28T09:34:03;7.60;;;5.70;;
40849;SDS011;26571;41.610;25.380;2023-12-28T09:36:29;8.30;;;5.18;;
40849;SDS011;26571;41.610;25.380;2023-12-28T09:38:58;12.07;;;6.68;;
40849;SDS011;26571;41.610;25.380;2023-12-28T09:41:25;7.32;;;4.78;;
40849;SDS011;26571;41.610;25.380;2023-12-28T09:44:08;6.15;;;5.50;;
40849;SDS011;26571;41.610;25.380;2023-12-28T09:46:36;9.43;;;5.68;;
40849;SDS011;26571;41.610;25.380;2023-12-28T09:49:03;8.15;;;5.70;;
40849;SDS011;26571;41.610;25.380;2023-12-28T09:51:29;8.18;;;4.50;;
40849;SDS011;26571;41.610;25.380;2023-12-28T09:53:56;6.10;;;5.43;;
40849;SDS011;26571;41.610;25.380;2023-12-28T09:56:22;9.32;;;5.63;;
40849;SDS011;26571;41.610;25.380;2023-12-28T09:58:48;14.30;;;8.82;;
40849;SDS011;26571;41.610;25.380;2023-12-28T10:01:16;9.02;;;7.43;;
40849;SDS011;26571;41.610;25.380;2023-12-28T10:03:43;9.90;;;9.05;;
40849;SDS011;26571;41.610;25.380;2023-12-28T10:06:09;6.53;;;5.93;;
40849;SDS011;26571;41.610;25.380;2023-12-28T10:08:34;8.10;;;6.53;;
40849;SDS011;26571;41.610;25.380;2023-12-28T10:11:02;8.02;;;6.88;;
40849;SDS011;26571;41.610;25.380;2023-12-28T10:13:28;6.97;;;5.70;;
40849;SDS011;26571;41.610;25.380;2023-12-28T10:15:58;4.95;;;4.50;;
40849;SDS011;26571;41.610;25.380;2023-12-28T10:18:24;6.15;;;5.22;;
40849;SDS011;26571;41.610;25.380;2023-12-28T10:20:50;6.53;;;5.88;;
40849;SDS011;26571;41.610;25.380;2023-12-28T10:23:17;6.85;;;5.55;;
40849;SDS011;26571;41.610;25.380;2023-12-28T10:25:44;12.45;;;8.20;;
40849;SDS011;26571;41.610;25.380;2023-12-28T10:28:11;6.47;;;5.22;;
40849;SDS011;26571;41.610;25.380;2023-12-28T10:30:40;6.40;;;4.90;;
40849;SDS011;26571;41.610;25.380;2023-12-28T10:33:06;7.47;;;5.32;;
40849;SDS011;26571;41.610;25.380;2023-12-28T10:35:32;7.90;;;5.25;;
40849;SDS011;26571;41.610;25.380;2023-12-28T10:37:59;7.55;;;5.38;;
40849;SDS011;26571;41.610;25.380;2023-12-28T10:40:26;8.80;;;5.82;;
40849;SDS011;26571;41.610;25.380;2023-12-28T10:42:57;6.47;;;5.35;;
40849;SDS011;26571;41.610;25.380;2023-12-28T10:45:28;4.95;;;4.13;;
40849;SDS011;26571;41.610;25.380;2023-12-28T10:48:06;8.05;;;5.72;;
40849;SDS011;26571;41.610;25.380;2023-12-28T10:50:38;7.30;;;5.05;;
40849;SDS011;26571;41.610;25.380;2023-12-28T10:53:15;6.72;;;4.95;;
40849;SDS011;26571;41.610;25.380;2023-12-28T10:58:34;6.93;;;6.25;;
40849;SDS011;26571;41.610;25.380;2023-12-28T11:01:09;4.68;;;4.38;;
40849;SDS011;26571;41.610;25.380;2023-12-28T11:03:37;6.07;;;4.57;;
40849;SDS011;26571;41.610;25.380;2023-12-28T11:06:06;7.22;;;5.13;;
40849;SDS011;26571;41.610;25.380;2023-12-28T11:08:33;4.50;;;4.15;;
40849;SDS011;26571;41.610;25.380;2023-12-28T11:13:28;6.32;;;4.45;;
40849;SDS011;26571;41.610;25.380;2023-12-28T11:15:55;3.45;;;3.17;;
40849;SDS011;26571;41.610;25.380;2023-12-28T11:20:49;4.88;;;3.30;;
40849;SDS011;26571;41.610;25.380;2023-12-28T11:23:16;5.47;;;4.97;;
40849;SDS011;26571;41.610;25.380;2023-12-28T11:25:42;5.15;;;4.03;;
40849;SDS011;26571;41.610;25.380;2023-12-28T11:28:10;5.50;;;4.78;;
40849;SDS011;26571;41.610;25.380;2023-12-28T11:30:37;12.80;;;7.10;;
40849;SDS011;26571;41.610;25.380;2023-12-28T11:33:06;6.18;;;5.05;;
40849;SDS011;26571;41.610;25.380;2023-12-28T11:35:52;8.00;;;6.47;;
40849;SDS011;26571;41.610;25.380;2023-12-28T11:38:18;7.90;;;5.30;;
40849;SDS011;26571;41.610;25.380;2023-12-28T11:40:45;6.78;;;5.45;;
40849;SDS011;26571;41.610;25.380;2023-12-28T11:43:18;4.57;;;3.45;;
40849;SDS011;26571;41.610;25.380;2023-12-28T11:45:51;4.50;;;4.13;;
40849;SDS011;26571;41.610;25.380;2023-12-28T11:48:23;3.75;;;3.45;;
40849;SDS011;26571;41.610;25.380;2023-12-28T11:50:51;3.88;;;3.30;;
40849;SDS011;26571;41.610;25.380;2023-12-28T11:53:19;8.45;;;5.00;;
40849;SDS011;26571;41.610;25.380;2023-12-28T11:55:45;8.93;;;8.07;;
40849;SDS011;26571;41.610;25.380;2023-12-28T11:58:11;8.23;;;4.65;;
40849;SDS011;26571;41.610;25.380;2023-12-28T12:00:37;80.78;;;36.85;;
40849;SDS011;26571;41.610;25.380;2023-12-28T12:03:02;72.20;;;38.92;;
40849;SDS011;26571;41.610;25.380;2023-12-28T12:05:28;17.27;;;9.50;;
40849;SDS011;26571;41.610;25.380;2023-12-28T12:07:54;6.72;;;3.03;;
40849;SDS011;26571;41.610;25.380;2023-12-28T12:10:20;3.53;;;2.75;;
40849;SDS011;26571;41.610;25.380;2023-12-28T12:12:46;6.70;;;3.92;;
40849;SDS011;26571;41.610;25.380;2023-12-28T12:15:12;8.77;;;7.15;;
40849;SDS011;26571;41.610;25.380;2023-12-28T12:17:38;3.47;;;2.55;;
40849;SDS011;26571;41.610;25.380;2023-12-28T12:20:04;4.10;;;1.90;;
40849;SDS011;26571;41.610;25.380;2023-12-28T12:22:31;3.17;;;2.70;;
40849;SDS011;26571;41.610;25.380;2023-12-28T12:24:58;4.20;;;2.47;;
40849;SDS011;26571;41.610;25.380;2023-12-28T12:27:29;9.32;;;7.45;;
40849;SDS011;26571;41.610;25.380;2023-12-28T12:29:54;6.40;;;4.20;;
40849;SDS011;26571;41.610;25.380;2023-12-28T12:32:20;5.30;;;3.13;;
40849;SDS011;26571;41.610;25.380;2023-12-28T12:34:46;5.47;;;4.50;;
40849;SDS011;26571;41.610;25.380;2023-12-28T12:37:12;44.65;;;30.92;;
40849;SDS011;26571;41.610;25.380;2023-12-28T12:39:38;54.95;;;31.65;;
40849;SDS011;26571;41.610;25.380;2023-12-28T12:42:04;38.45;;;20.10;;
40849;SDS011;26571;41.610;25.380;2023-12-28T12:44:29;8.60;;;5.40;;
40849;SDS011;26571;41.610;25.380;2023-12-28T12:46:58;20.27;;;13.18;;
40849;SDS011;26571;41.610;25.380;2023-12-28T12:49:25;5.13;;;3.70;;
40849;SDS011;26571;41.610;25.380;2023-12-28T12:51:50;4.57;;;4.15;;
40849;SDS011;26571;41.610;25.380;2023-12-28T12:54:16;6.65;;;4.78;;
40849;SDS011;26571;41.610;25.380;2023-12-28T12:59:10;8.57;;;5.65;;
40849;SDS011;26571;41.610;25.380;2023-12-28T13:01:41;7.45;;;4.75;;
40849;SDS011;26571;41.610;25.380;2023-12-28T13:04:07;6.65;;;4.32;;
40849;SDS011;26571;41.610;25.380;2023-12-28T13:06:32;14.50;;;8.77;;
40849;SDS011;26571;41.610;25.380;2023-12-28T13:08:58;5.85;;;3.47;;
40849;SDS011;26571;41.610;25.380;2023-12-28T13:11:23;5.22;;;3.78;;
40849;SDS011;26571;41.610;25.380;2023-12-28T13:13:51;3.85;;;2.30;;
40849;SDS011;26571;41.610;25.380;2023-12-28T13:16:17;3.13;;;2.83;;
40849;SDS011;26571;41.610;25.380;2023-12-28T13:18:43;8.25;;;5.25;;
40849;SDS011;26571;41.610;25.380;2023-12-28T13:21:08;10.02;;;4.80;;
40849;SDS011;26571;41.610;25.380;2023-12-28T13:23:34;5.28;;;3.28;;
40849;SDS011;26571;41.610;25.380;2023-12-28T13:25:59;11.63;;;7.25;;
40849;SDS011;26571;41.610;25.380;2023-12-28T13:28:25;11.35;;;6.38;;
40849;SDS011;26571;41.610;25.380;2023-12-28T13:30:51;9.50;;;7.10;;
40849;SDS011;26571;41.610;25.380;2023-12-28T13:33:20;23.52;;;12.77;;
40849;SDS011;26571;41.610;25.380;2023-12-28T13:35:46;17.10;;;10.68;;
40849;SDS011;26571;41.610;25.380;2023-12-28T13:38:11;7.57;;;5.30;;
40849;SDS011;26571;41.610;25.380;2023-12-28T13:40:37;12.02;;;6.80;;
40849;SDS011;26571;41.610;25.380;2023-12-28T13:43:02;9.65;;;5.93;;
40849;SDS011;26571;41.610;25.380;2023-12-28T13:45:28;13.75;;;8.20;;
40849;SDS011;26571;41.610;25.380;2023-12-28T13:47:53;11.05;;;6.85;;
40849;SDS011;26571;41.610;25.380;2023-12-28T13:50:19;16.05;;;8.95;;
40849;SDS011;26571;41.610;25.380;2023-12-28T13:52:45;9.57;;;5.82;;
40849;SDS011;26571;41.610;25.380;2023-12-28T13:55:11;6.90;;;3.97;;
40849;SDS011;26571;41.610;25.380;2023-12-28T13:57:36;3.67;;;2.20;;
40849;SDS011;26571;41.610;25.380;2023-12-28T14:00:02;2.75;;;2.03;;
40849;SDS011;26571;41.610;25.380;2023-12-28T14:02:28;3.20;;;2.15;;
40849;SDS011;26571;41.610;25.380;2023-12-28T14:04:53;3.70;;;2.95;;
40849;SDS011;26571;41.610;25.380;2023-12-28T14:09:46;10.13;;;6.05;;
40849;SDS011;26571;41.610;25.380;2023-12-28T14:12:12;8.65;;;5.70;;
40849;SDS011;26571;41.610;25.380;2023-12-28T14:14:37;8.10;;;5.18;;
40849;SDS011;26571;41.610;25.380;2023-12-28T14:17:03;8.60;;;5.20;;
40849;SDS011;26571;41.610;25.380;2023-12-28T14:19:31;13.43;;;6.38;;
40849;SDS011;26571;41.610;25.380;2023-12-28T14:21:57;12.85;;;7.03;;
40849;SDS011;26571;41.610;25.380;2023-12-28T14:24:24;11.05;;;6.93;;
40849;SDS011;26571;41.610;25.380;2023-12-28T14:26:51;17.40;;;7.03;;
40849;SDS011;26571;41.610;25.380;2023-12-28T14:29:19;14.50;;;6.80;;
40849;SDS011;26571;41.610;25.380;2023-12-28T14:31:45;16.73;;;9.73;;
40849;SDS011;26571;41.610;25.380;2023-12-28T14:34:12;14.45;;;8.57;;
40849;SDS011;26571;41.610;25.380;2023-12-28T14:36:38;14.50;;;8.02;;
40849;SDS011;26571;41.610;25.380;2023-12-28T14:39:04;14.48;;;11.10;;
40849;SDS011;26571;41.610;25.380;2023-12-28T14:41:31;23.95;;;14.73;;
40849;SDS011;26571;41.610;25.380;2023-12-28T14:44:00;15.27;;;10.25;;